Rhodanus — PGBC — position and weather

sailwx.info

Track history (hours):
 
Tides and Currents Weather Stations Pressure Air Temp Water Temp Dewpoint Dewpoint Depression Visibility Wind Speed Wind Dir Waves Ship Positions

Rhodanus

Last reported at 2017-May-26 20:09 UTC. Time now 2017-May-27 04:20 UTC.
Position N 43°42' E 004°38'.

Length 89 m; draft 4.2 m.

Type: Ship. MMSI: 245848000.

Date/timePositionNaut miles runAvg speedWind from/ knotsBaromVisibWave heightAir tempDewpointWater temp
2017-May-26 20:09N 43°42' E 004°38'0 0.0
2017-May-26 19:57N 43°42' E 004°38'6 3.5
2017-May-26 18:19N 43°36' E 004°39'2 5.6
2017-May-26 17:57N 43°34' E 004°41'4 7.1
2017-May-26 17:26N 43°32' E 004°44'5 7.5
2017-May-26 16:49N 43°27' E 004°45'2 6.8
2017-May-26 16:30N 43°25' E 004°45'3 6.5
2017-May-26 16:00N 43°23' E 004°49'0 0.5
2017-May-26 15:30N 43°23' E 004°49'5 6.3
2017-May-26 14:42N 43°23' E 004°55'7 6.8
2017-May-26 13:37N 43°17' E 005°00'1 7.5
2017-May-26 13:31N 43°16' E 005°01'6 5.7
2017-May-26 12:29N 43°10' E 005°01'6 6.5
2017-May-26 11:38N 43°06' E 004°56'4 6.9
2017-May-26 11:03N 43°03' E 004°53'0 7.4
2017-May-26 11:01N 43°03' E 004°53'4 7.3
2017-May-26 10:30N 42°60' E 004°50'4 7.1
2017-May-26 10:01N 42°57' E 004°47'4 7.1
2017-May-26 09:29N 42°54' E 004°43'4 7.8
2017-May-26 09:00N 42°51' E 004°40'4 8.7
2017-May-26 08:31N 42°47' E 004°37'9 8.8
2017-May-26 07:25N 42°40' E 004°29'6 8.6
2017-May-26 06:46N 42°35' E 004°25'6 8.7
2017-May-26 06:06N 42°30' E 004°20'4 8.7
2017-May-26 05:39N 42°27' E 004°17'1 8.9
2017-May-26 05:29N 42°26' E 004°16'6 9.1
2017-May-26 04:50N 42°21' E 004°11'20 9.3
2017-May-26 02:39N 42°05' E 003°55'4 9.4
2017-May-26 02:12N 42°02' E 003°52'4 9.4
2017-May-26 01:44N 41°58' E 003°48'2 9.3
2017-May-26 01:30N 41°57' E 003°46'28 9.0
2017-May-25 22:23N 41°34' E 003°24'4 8.6
2017-May-25 21:55N 41°31' E 003°20'4 8.7
2017-May-25 21:30N 41°28' E 003°17'9 9.0
2017-May-25 20:28N 41°21' E 003°10'6 9.3
2017-May-25 19:51N 41°16' E 003°05'4 9.4
2017-May-25 19:27N 41°13' E 003°02'4 9.4
2017-May-25 18:59N 41°10' E 002°59'5 9.4
2017-May-25 18:30N 41°06' E 002°55'5 9.4
2017-May-25 18:00N 41°02' E 002°52'5 9.6
2017-May-25 17:30N 40°58' E 002°47'5 9.8
2017-May-25 16:59N 40°54' E 002°43'5 9.7
2017-May-25 16:30N 40°51' E 002°40'5 9.5
2017-May-25 16:00N 40°47' E 002°36'5 9.5
2017-May-25 15:29N 40°43' E 002°32'5 9.5
2017-May-25 14:59N 40°39' E 002°29'9 9.4
2017-May-25 14:00N 40°32' E 002°21'5 9.1
2017-May-25 13:30N 40°28' E 002°18'4 9.0
2017-May-25 13:00N 40°24' E 002°14'5 9.1
2017-May-25 12:30N 40°21' E 002°11'5 9.3
2017-May-25 12:01N 40°17' E 002°07'5 9.3
2017-May-25 11:31N 40°14' E 002°03'5 9.2
2017-May-25 11:00N 40°10' E 001°59'5 9.1
2017-May-25 10:30N 40°06' E 001°56'5 9.2
2017-May-25 10:00N 40°03' E 001°52'5 9.2
2017-May-25 09:30N 39°59' E 001°48'5 9.2
2017-May-25 09:00N 39°55' E 001°45'5 9.3
2017-May-25 08:30N 39°51' E 001°42'5 9.1
2017-May-25 08:00N 39°47' E 001°38'5 9.1
2017-May-25 07:29N 39°44' E 001°35'12 9.1
2017-May-25 06:12N 39°34' E 001°26'2 9.2
2017-May-25 05:57N 39°32' E 001°25'101 9.4
2017-May-24 19:15N 38°11' E 000°07'2 9.1
2017-May-24 19:00N 38°10' E 000°05'5 9.3
2017-May-24 18:30N 38°06' E 000°01'5 9.3
2017-May-24 18:00N 38°02' W 000°02'5 9.5
2017-May-24 17:27N 37°58' W 000°06'4 9.6
2017-May-24 17:00N 37°55' W 000°10'6 9.5
2017-May-24 16:26N 37°50' W 000°14'10 9.5
2017-May-24 15:24N 37°43' W 000°21'4 9.2
2017-May-24 14:58N 37°39' W 000°24'4 8.9
2017-May-24 14:29N 37°36' W 000°28'17 8.5
2017-May-24 12:28N 37°24' W 000°43'4 8.2
2017-May-24 12:00N 37°22' W 000°47'  
2017-May-21 02:18N 36°01' W 005°12'2 8.0
2017-May-21 02:00N 36°01' W 005°15'4 7.9
2017-May-21 01:30N 35°59' W 005°19'4 8.4
2017-May-21 01:00N 35°58' W 005°24'6 3.4
2017-May-20 23:05N 35°53' W 005°30'0 0.0
2017-May-20 22:47N 35°53' W 005°30'0 0.0
2017-May-20 22:27N 35°53' W 005°30'0 0.0
2017-May-20 20:38N 35°53' W 005°30'0 0.0
2017-May-20 05:58N 35°53' W 005°30'0 0.0
2017-May-20 05:28N 35°53' W 005°30'0 0.0
2017-May-20 04:59N 35°53' W 005°30'0 0.0
2017-May-20 04:30N 35°53' W 005°30'0 0.0
2017-May-20 04:00N 35°53' W 005°30'0 0.0
2017-May-20 03:30N 35°53' W 005°30'0 0.3
2017-May-20 02:58N 35°54' W 005°30'1 2.3
2017-May-20 02:20N 35°54' W 005°31'2 5.0
2017-May-20 01:59N 35°53' W 005°33'0 0.5
2017-May-20 01:30N 35°53' W 005°33'1 2.2
2017-May-20 01:00N 35°53' W 005°34'  
Track history (hours):
 
Tides and Currents Weather Stations Pressure Air Temp Water Temp Dewpoint Dewpoint Depression Visibility Wind Speed Wind Dir Waves Ship Positions

Rhodanus

Last reported at 2017-May-26 20:09 UTC. Time now 2017-May-27 04:20 UTC.
Position N 43°42' E 004°38'.

Length 89 m; draft 4.2 m.

Type: Ship. MMSI: 245848000.

Date/timePositionNaut miles runAvg speedWind from/ knotsBaromVisibWave heightAir tempDewpointWater temp
2017-May-26 20:09N 43°42' E 004°38'0 0.0
2017-May-26 19:57N 43°42' E 004°38'6 3.5
2017-May-26 18:19N 43°36' E 004°39'2 5.6
2017-May-26 17:57N 43°34' E 004°41'4 7.1
2017-May-26 17:26N 43°32' E 004°44'5 7.5
2017-May-26 16:49N 43°27' E 004°45'2 6.8
2017-May-26 16:30N 43°25' E 004°45'3 6.5
2017-May-26 16:00N 43°23' E 004°49'0 0.5
2017-May-26 15:30N 43°23' E 004°49'5 6.3
2017-May-26 14:42N 43°23' E 004°55'7 6.8
2017-May-26 13:37N 43°17' E 005°00'1 7.5
2017-May-26 13:31N 43°16' E 005°01'6 5.7
2017-May-26 12:29N 43°10' E 005°01'6 6.5
2017-May-26 11:38N 43°06' E 004°56'4 6.9
2017-May-26 11:03N 43°03' E 004°53'0 7.4
2017-May-26 11:01N 43°03' E 004°53'4 7.3
2017-May-26 10:30N 42°60' E 004°50'4 7.1
2017-May-26 10:01N 42°57' E 004°47'4 7.1
2017-May-26 09:29N 42°54' E 004°43'4 7.8
2017-May-26 09:00N 42°51' E 004°40'4 8.7
2017-May-26 08:31N 42°47' E 004°37'9 8.8
2017-May-26 07:25N 42°40' E 004°29'6 8.6
2017-May-26 06:46N 42°35' E 004°25'6 8.7
2017-May-26 06:06N 42°30' E 004°20'4 8.7
2017-May-26 05:39N 42°27' E 004°17'1 8.9
2017-May-26 05:29N 42°26' E 004°16'6 9.1
2017-May-26 04:50N 42°21' E 004°11'20 9.3
2017-May-26 02:39N 42°05' E 003°55'4 9.4
2017-May-26 02:12N 42°02' E 003°52'4 9.4
2017-May-26 01:44N 41°58' E 003°48'2 9.3
2017-May-26 01:30N 41°57' E 003°46'28 9.0
2017-May-25 22:23N 41°34' E 003°24'4 8.6
2017-May-25 21:55N 41°31' E 003°20'4 8.7
2017-May-25 21:30N 41°28' E 003°17'9 9.0
2017-May-25 20:28N 41°21' E 003°10'6 9.3
2017-May-25 19:51N 41°16' E 003°05'4 9.4
2017-May-25 19:27N 41°13' E 003°02'4 9.4
2017-May-25 18:59N 41°10' E 002°59'5 9.4
2017-May-25 18:30N 41°06' E 002°55'5 9.4
2017-May-25 18:00N 41°02' E 002°52'5 9.6
2017-May-25 17:30N 40°58' E 002°47'5 9.8
2017-May-25 16:59N 40°54' E 002°43'5 9.7
2017-May-25 16:30N 40°51' E 002°40'5 9.5
2017-May-25 16:00N 40°47' E 002°36'5 9.5
2017-May-25 15:29N 40°43' E 002°32'5 9.5
2017-May-25 14:59N 40°39' E 002°29'9 9.4
2017-May-25 14:00N 40°32' E 002°21'5 9.1
2017-May-25 13:30N 40°28' E 002°18'4 9.0
2017-May-25 13:00N 40°24' E 002°14'5 9.1
2017-May-25 12:30N 40°21' E 002°11'5 9.3
2017-May-25 12:01N 40°17' E 002°07'5 9.3
2017-May-25 11:31N 40°14' E 002°03'5 9.2
2017-May-25 11:00N 40°10' E 001°59'5 9.1
2017-May-25 10:30N 40°06' E 001°56'5 9.2
2017-May-25 10:00N 40°03' E 001°52'5 9.2
2017-May-25 09:30N 39°59' E 001°48'5 9.2
2017-May-25 09:00N 39°55' E 001°45'5 9.3
2017-May-25 08:30N 39°51' E 001°42'5 9.1
2017-May-25 08:00N 39°47' E 001°38'5 9.1
2017-May-25 07:29N 39°44' E 001°35'12 9.1
2017-May-25 06:12N 39°34' E 001°26'2 9.2
2017-May-25 05:57N 39°32' E 001°25'101 9.4
2017-May-24 19:15N 38°11' E 000°07'2 9.1
2017-May-24 19:00N 38°10' E 000°05'5 9.3
2017-May-24 18:30N 38°06' E 000°01'5 9.3
2017-May-24 18:00N 38°02' W 000°02'5 9.5
2017-May-24 17:27N 37°58' W 000°06'4 9.6
2017-May-24 17:00N 37°55' W 000°10'6 9.5
2017-May-24 16:26N 37°50' W 000°14'10 9.5
2017-May-24 15:24N 37°43' W 000°21'4 9.2
2017-May-24 14:58N 37°39' W 000°24'4 8.9
2017-May-24 14:29N 37°36' W 000°28'17 8.5
2017-May-24 12:28N 37°24' W 000°43'4 8.2
2017-May-24 12:00N 37°22' W 000°47'  
2017-May-21 02:18N 36°01' W 005°12'2 8.0
2017-May-21 02:00N 36°01' W 005°15'4 7.9
2017-May-21 01:30N 35°59' W 005°19'4 8.4
2017-May-21 01:00N 35°58' W 005°24'6 3.4
2017-May-20 23:05N 35°53' W 005°30'0 0.0
2017-May-20 22:47N 35°53' W 005°30'0 0.0
2017-May-20 22:27N 35°53' W 005°30'0 0.0
2017-May-20 20:38N 35°53' W 005°30'0 0.0
2017-May-20 05:58N 35°53' W 005°30'0 0.0
2017-May-20 05:28N 35°53' W 005°30'0 0.0
2017-May-20 04:59N 35°53' W 005°30'0 0.0
2017-May-20 04:30N 35°53' W 005°30'0 0.0
2017-May-20 04:00N 35°53' W 005°30'0 0.0
2017-May-20 03:30N 35°53' W 005°30'0 0.3
2017-May-20 02:58N 35°54' W 005°30'1 2.3
2017-May-20 02:20N 35°54' W 005°31'2 5.0
2017-May-20 01:59N 35°53' W 005°33'0 0.5
2017-May-20 01:30N 35°53' W 005°33'1 2.2
2017-May-20 01:00N 35°53' W 005°34'  

Dump ship's entire track history